Time;durP1;ratioP1;P1;durP2;ratioP2;P2;SDS_P1;SDS_P2;PMS_P1;PMS_P2;Temp;Humidity;BMP_temperature;BMP_pressure;BME280_temperature;BME280_humidity;BME280_pressure;Samples;Min_cycle;Max_cycle;Signal;HPM_P1;HPM_P2
2021/11/19 00:00:28;;;;;;;2.72;0.55;;;12.00;89.90;;;;;;4805953;29;20055;-75
2021/11/19 00:02:58;;;;;;;3.05;0.60;;;12.00;89.80;;;;;;4806992;29;20070;-76
2021/11/19 00:05:26;;;;;;;3.17;0.88;;;12.00;89.80;;;;;;4840853;29;20051;-74
2021/11/19 00:07:55;;;;;;;2.38;0.77;;;12.10;89.70;;;;;;4806562;29;20111;-75
2021/11/19 00:10:24;;;;;;;1.75;0.90;;;12.10;89.60;;;;;;4806470;29;20054;-75
2021/11/19 00:12:52;;;;;;;2.70;0.70;;;12.10;89.50;;;;;;4823529;29;20433;-75
2021/11/19 00:15:20;;;;;;;3.50;0.85;;;12.10;89.30;;;;;;4813385;29;20141;-75
2021/11/19 00:17:47;;;;;;;4.63;0.70;;;12.10;89.30;;;;;;4821410;29;20509;-74
2021/11/19 00:20:18;;;;;;;2.05;0.60;;;12.10;89.20;;;;;;4813161;29;20545;-74
2021/11/19 00:22:46;;;;;;;2.85;0.63;;;12.00;89.10;;;;;;4805773;29;20051;-74
2021/11/19 00:25:14;;;;;;;1.05;0.50;;;12.00;89.20;;;;;;4805242;29;20486;-74
2021/11/19 00:27:41;;;;;;;2.90;0.65;;;11.90;89.30;;;;;;4806008;29;20063;-74
2021/11/19 00:30:13;;;;;;;1.83;0.40;;;11.90;89.40;;;;;;4789261;29;20051;-74
2021/11/19 00:32:41;;;;;;;3.72;0.82;;;11.80;89.50;;;;;;4789569;29;20054;-74
2021/11/19 00:35:11;;;;;;;4.07;0.70;;;11.80;89.60;;;;;;4805276;29;20051;-74
2021/11/19 00:37:41;;;;;;;1.48;0.43;;;11.70;89.70;;;;;;4789073;29;20058;-74
2021/11/19 00:40:14;;;;;;;1.50;0.50;;;11.60;89.80;;;;;;4810866;29;20042;-74
2021/11/19 00:42:42;;;;;;;4.13;0.50;;;11.60;89.90;;;;;;4809141;29;20144;-74
2021/11/19 00:45:10;;;;;;;2.83;0.50;;;11.50;89.90;;;;;;4807945;29;20058;-74
2021/11/19 00:47:38;;;;;;;2.38;0.75;;;11.50;89.90;;;;;;4805563;29;20413;-74
2021/11/19 00:50:09;;;;;;;3.85;0.65;;;11.40;89.90;;;;;;4828952;29;20054;-74
2021/11/19 00:52:36;;;;;;;3.55;0.65;;;11.40;90.00;;;;;;4838823;29;20398;-74
2021/11/19 00:55:07;;;;;;;2.92;0.70;;;11.30;90.10;;;;;;4825188;29;20165;-74
2021/11/19 00:57:34;;;;;;;2.00;0.60;;;11.30;90.10;;;;;;4823195;29;20061;-74
2021/11/19 01:00:08;;;;;;;2.40;0.80;;;11.30;90.20;;;;;;4823162;29;20054;-74
2021/11/19 01:02:36;;;;;;;3.35;0.80;;;11.20;90.40;;;;;;4823129;29;20050;-74
2021/11/19 01:05:04;;;;;;;2.75;0.75;;;11.10;90.40;;;;;;4803876;29;20051;-74
2021/11/19 01:07:32;;;;;;;1.35;0.45;;;11.10;90.50;;;;;;4806695;29;20505;-74
2021/11/19 01:10:08;;;;;;;2.78;0.60;;;11.10;90.60;;;;;;4806386;29;20058;-74
2021/11/19 01:12:36;;;;;;;3.28;0.63;;;11.10;90.60;;;;;;4807078;29;20042;-74
2021/11/19 01:15:13;;;;;;;3.50;0.70;;;11.10;90.60;;;;;;4826617;29;20058;-74
2021/11/19 01:17:55;;;;;;;1.83;0.50;;;11.10;90.60;;;;;;4807800;29;20054;-74
2021/11/19 01:20:39;;;;;;;3.65;0.60;;;11.20;90.50;;;;;;4836772;29;20061;-74
2021/11/19 01:23:10;;;;;;;1.58;0.60;;;11.20;90.50;;;;;;4810162;29;20528;-74
2021/11/19 01:25:43;;;;;;;2.00;0.60;;;11.10;90.50;;;;;;4810038;29;20512;-74
2021/11/19 01:28:14;;;;;;;3.47;0.70;;;11.10;90.60;;;;;;4810300;29;20049;-75
2021/11/19 01:30:49;;;;;;;4.32;0.80;;;11.20;90.70;;;;;;4823931;29;20069;-74
2021/11/19 01:33:18;;;;;;;1.92;0.57;;;11.20;90.70;;;;;;4816771;29;20126;-74
2021/11/19 01:36:21;;;;;;;1.45;0.75;;;11.20;90.70;;;;;;4791711;29;20051;-75
2021/11/19 01:39:06;;;;;;;3.45;0.70;;;11.30;90.50;;;;;;4838827;29;20074;-74
2021/11/19 01:42:05;;;;;;;4.10;0.80;;;11.20;90.40;;;;;;4805542;29;20497;-74
2021/11/19 01:44:43;;;;;;;2.88;0.60;;;11.20;90.40;;;;;;4808351;29;20070;-74
2021/11/19 01:47:12;;;;;;;2.67;0.80;;;11.20;90.40;;;;;;4840266;29;20071;-74
2021/11/19 01:49:40;;;;;;;2.67;0.65;;;11.20;90.40;;;;;;4817259;29;20398;-75
2021/11/19 01:52:17;;;;;;;2.08;0.70;;;11.20;90.30;;;;;;4826263;29;20054;-74
2021/11/19 01:54:59;;;;;;;4.10;0.77;;;11.30;90.30;;;;;;4810119;29;20050;-74
2021/11/19 01:57:32;;;;;;;2.42;0.43;;;11.30;90.30;;;;;;4810141;29;20039;-74
2021/11/19 02:00:14;;;;;;;1.33;0.52;;;11.30;90.20;;;;;;4810964;29;20409;-74
2021/11/19 02:02:50;;;;;;;1.25;0.57;;;11.30;90.00;;;;;;4830677;29;20051;-74
2021/11/19 02:05:50;;;;;;;1.55;0.40;;;11.30;89.80;;;;;;4809871;29;20464;-74
2021/11/19 02:08:21;;;;;;;1.38;0.70;;;11.40;89.60;;;;;;4821095;29;20058;-74
2021/11/19 02:11:12;;;;;;;2.75;0.55;;;11.40;89.50;;;;;;4824379;29;20070;-74
2021/11/19 02:14:07;;;;;;;1.85;0.88;;;11.50;89.20;;;;;;4809234;29;20050;-74
2021/11/19 02:16:45;;;;;;;4.00;0.60;;;11.50;88.90;;;;;;4805527;29;20054;-74
2021/11/19 02:19:37;;;;;;;2.42;0.70;;;11.60;88.70;;;;;;4808837;29;20050;-74
2021/11/19 02:22:26;;;;;;;1.55;0.77;;;11.60;88.60;;;;;;4825479;29;20505;-74
2021/11/19 02:24:59;;;;;;;3.20;0.90;;;11.60;88.60;;;;;;4794472;29;20061;-74
2021/11/19 02:27:38;;;;;;;1.75;0.75;;;11.50;88.60;;;;;;4823393;29;20416;-75
2021/11/19 02:30:17;;;;;;;1.38;0.80;;;11.50;88.70;;;;;;4809033;29;20046;-74
2021/11/19 02:32:58;;;;;;;2.67;1.00;;;11.50;88.70;;;;;;4798624;29;20061;-74
2021/11/19 02:35:37;;;;;;;1.58;0.80;;;11.40;88.80;;;;;;4808675;29;20059;-74
2021/11/19 02:38:17;;;;;;;2.53;1.00;;;11.30;88.90;;;;;;4809507;29;20291;-74
2021/11/19 02:40:50;;;;;;;2.60;0.68;;;11.20;89.10;;;;;;4820673;29;20046;-74
2021/11/19 02:43:27;;;;;;;1.67;0.75;;;11.20;89.30;;;;;;4808307;29;20058;-74
2021/11/19 02:45:55;;;;;;;2.45;0.93;;;11.10;89.50;;;;;;4801796;29;20070;-74
2021/11/19 02:48:28;;;;;;;1.80;0.70;;;11.00;89.50;;;;;;4804609;29;20054;-74
2021/11/19 02:50:57;;;;;;;5.20;0.80;;;11.00;89.60;;;;;;4806905;29;20418;-74
2021/11/19 02:53:26;;;;;;;3.22;0.50;;;10.90;89.70;;;;;;4796567;29;20074;-74
2021/11/19 02:55:59;;;;;;;1.15;0.55;;;10.90;89.70;;;;;;4810459;29;20077;-75
2021/11/19 02:58:36;;;;;;;2.67;0.73;;;10.90;89.70;;;;;;4827591;29;20060;-74
2021/11/19 03:01:15;;;;;;;2.03;0.65;;;10.80;89.70;;;;;;4789241;30;20403;-74
2021/11/19 03:03:48;;;;;;;1.92;0.50;;;10.80;89.60;;;;;;4804675;29;20047;-74
2021/11/19 03:06:16;;;;;;;1.23;0.40;;;10.90;89.50;;;;;;4812249;29;20057;-73
2021/11/19 03:08:45;;;;;;;3.20;0.70;;;10.90;89.30;;;;;;4801699;29;20051;-73
2021/11/19 03:11:13;;;;;;;0.90;0.50;;;10.90;89.20;;;;;;4818209;29;20058;-73
2021/11/19 03:13:41;;;;;;;2.60;0.63;;;11.00;89.10;;;;;;4811644;29;20069;-73
2021/11/19 03:16:10;;;;;;;1.02;0.65;;;11.10;89.00;;;;;;4828025;29;20058;-73
2021/11/19 03:18:39;;;;;;;2.13;0.60;;;11.10;88.90;;;;;;4808036;29;20079;-73
2021/11/19 03:21:12;;;;;;;0.95;0.47;;;11.10;88.80;;;;;;4803536;29;20066;-73
2021/11/19 03:23:40;;;;;;;1.17;0.50;;;11.10;88.80;;;;;;4787102;29;20047;-74
2021/11/19 03:26:11;;;;;;;0.55;0.40;;;11.10;88.70;;;;;;4774107;29;20059;-74
2021/11/19 03:28:39;;;;;;;2.45;0.70;;;11.20;88.60;;;;;;4824196;29;20125;-74
2021/11/19 03:31:10;;;;;;;1.42;0.60;;;11.20;88.50;;;;;;4807662;29;20065;-74
2021/11/19 03:33:41;;;;;;;1.23;0.68;;;11.10;88.50;;;;;;4807796;29;20054;-74
2021/11/19 03:36:11;;;;;;;1.67;0.68;;;11.10;88.50;;;;;;4802539;29;20077;-74
2021/11/19 03:38:55;;;;;;;1.85;0.57;;;11.20;88.60;;;;;;4821503;29;20058;-74
2021/11/19 03:41:28;;;;;;;1.40;0.60;;;11.20;88.60;;;;;;4801673;29;20046;-74
2021/11/19 03:44:08;;;;;;;0.60;0.50;;;11.10;88.60;;;;;;4789223;29;20047;-74
2021/11/19 03:46:42;;;;;;;1.67;0.63;;;11.10;88.60;;;;;;4812549;29;20054;-74
2021/11/19 03:49:10;;;;;;;2.20;0.57;;;11.10;88.60;;;;;;4825487;29;20050;-74
2021/11/19 03:52:10;;;;;;;2.92;0.63;;;11.10;88.50;;;;;;4825101;29;20527;-74
2021/11/19 03:54:39;;;;;;;1.75;0.73;;;11.10;88.20;;;;;;4825349;29;20046;-74
2021/11/19 03:57:13;;;;;;;3.70;0.73;;;11.20;88.10;;;;;;4825294;29;20073;-74
2021/11/19 03:59:42;;;;;;;1.50;0.80;;;11.20;88.10;;;;;;4841494;29;20308;-74
2021/11/19 04:02:12;;;;;;;1.20;0.75;;;11.20;88.00;;;;;;4825004;29;20423;-74
2021/11/19 04:04:40;;;;;;;1.60;1.08;;;11.20;87.90;;;;;;4825575;29;20487;-74
2021/11/19 04:07:11;;;;;;;2.58;1.10;;;11.30;87.80;;;;;;4825564;29;20056;-74
2021/11/19 04:09:44;;;;;;;2.78;1.08;;;11.30;87.80;;;;;;4822191;29;20051;-74
2021/11/19 04:12:15;;;;;;;3.30;1.20;;;11.30;87.80;;;;;;4821886;29;20054;-74
2021/11/19 04:14:43;;;;;;;3.28;1.10;;;11.30;87.70;;;;;;4811091;29;20050;-73
2021/11/19 04:17:11;;;;;;;2.00;1.10;;;11.30;87.60;;;;;;4824362;29;20064;-74
2021/11/19 04:19:39;;;;;;;1.63;1.20;;;11.30;87.60;;;;;;4824988;29;20069;-73
2021/11/19 04:22:15;;;;;;;3.15;1.30;;;11.30;87.50;;;;;;4825890;29;20491;-74
2021/11/19 04:24:51;;;;;;;5.40;1.60;;;11.30;87.50;;;;;;4847993;29;20044;-74
2021/11/19 04:27:21;;;;;;;3.28;0.98;;;11.30;87.40;;;;;;4807165;29;20073;-74
2021/11/19 04:30:27;;;;;;;1.80;0.95;;;11.40;87.20;;;;;;4819414;29;20062;-74
2021/11/19 04:32:56;;;;;;;1.80;1.10;;;11.40;87.20;;;;;;4820735;29;20496;-74
2021/11/19 04:35:26;;;;;;;3.00;1.20;;;11.40;87.00;;;;;;4805354;29;20058;-74
2021/11/19 04:37:54;;;;;;;1.88;1.08;;;11.40;86.90;;;;;;4801852;29;20569;-74
2021/11/19 04:40:23;;;;;;;1.73;0.82;;;11.50;86.90;;;;;;4805246;29;20074;-74
2021/11/19 04:42:51;;;;;;;1.83;1.15;;;11.40;86.80;;;;;;4805139;29;20054;-74
2021/11/19 04:45:23;;;;;;;2.10;1.25;;;11.50;86.80;;;;;;4805353;29;20460;-74
2021/11/19 04:47:52;;;;;;;1.42;1.02;;;11.50;86.70;;;;;;4806104;29;20663;-74
2021/11/19 04:50:23;;;;;;;1.73;0.82;;;11.50;86.70;;;;;;4809653;29;20166;-74
2021/11/19 04:52:52;;;;;;;2.22;1.00;;;11.40;86.90;;;;;;4804778;29;20438;-74
2021/11/19 04:55:21;;;;;;;3.58;1.23;;;11.40;86.90;;;;;;4806382;29;20545;-74
2021/11/19 04:57:50;;;;;;;4.10;1.00;;;11.40;87.00;;;;;;4824025;29;20046;-74
2021/11/19 05:00:30;;;;;;;1.77;1.00;;;11.30;87.00;;;;;;4809135;29;20062;-74
2021/11/19 05:03:30;;;;;;;1.38;0.80;;;11.30;87.00;;;;;;4800868;29;20460;-74
2021/11/19 05:05:59;;;;;;;4.05;1.00;;;11.30;87.10;;;;;;4808397;29;20058;-74
2021/11/19 05:08:27;;;;;;;1.95;0.90;;;11.30;87.00;;;;;;4823839;29;20129;-74
2021/11/19 05:10:57;;;;;;;1.77;0.80;;;11.30;87.00;;;;;;4828204;29;20417;-74
2021/11/19 05:13:30;;;;;;;;;;;11.30;87.10;;;;;;4828377;29;20506;-74
2021/11/19 05:16:05;;;;;;;1.92;0.82;;;11.30;87.20;;;;;;4828582;29;19924;-74
2021/11/19 05:18:33;;;;;;;1.80;0.75;;;11.40;86.80;;;;;;4828205;29;20046;-74
2021/11/19 05:21:02;;;;;;;2.67;0.93;;;11.40;86.70;;;;;;4828196;29;20054;-74
2021/11/19 05:23:30;;;;;;;2.67;0.93;;;11.40;86.70;;;;;;4827358;29;20064;-74
2021/11/19 05:25:59;;;;;;;0.73;0.52;;;11.50;86.40;;;;;;4828013;29;20322;-74
2021/11/19 05:28:28;;;;;;;1.67;0.70;;;11.50;86.20;;;;;;4844253;29;20053;-74
2021/11/19 05:31:01;;;;;;;3.35;0.60;;;11.50;86.00;;;;;;4828166;29;20057;-74
2021/11/19 05:33:30;;;;;;;2.78;0.60;;;11.50;85.90;;;;;;4828227;29;20061;-74
2021/11/19 05:35:59;;;;;;;3.88;1.00;;;11.50;85.70;;;;;;4827761;29;20054;-74
2021/11/19 05:38:28;;;;;;;1.52;0.75;;;11.50;85.80;;;;;;4827596;29;20054;-74
2021/11/19 05:40:57;;;;;;;2.67;1.08;;;11.50;85.80;;;;;;4827792;29;20061;-74
2021/11/19 05:43:26;;;;;;;3.88;2.28;;;11.50;86.10;;;;;;4827528;29;20421;-74
2021/11/19 05:46:06;;;;;;;3.75;1.90;;;11.50;86.20;;;;;;4827457;29;20058;-73
2021/11/19 05:48:51;;;;;;;4.82;1.30;;;11.50;86.30;;;;;;4827309;29;20053;-74
2021/11/19 05:51:21;;;;;;;6.20;1.63;;;11.40;86.40;;;;;;4827219;29;20508;-74
2021/11/19 05:53:53;;;;;;;2.78;1.20;;;11.30;86.60;;;;;;4843872;29;20050;-77
2021/11/19 05:56:24;;;;;;;2.28;1.20;;;11.30;86.70;;;;;;4821988;29;20038;-74
2021/11/19 05:58:52;;;;;;;4.60;2.05;;;11.30;87.00;;;;;;4834934;29;20408;-73
2021/11/19 06:01:38;;;;;;;3.92;1.23;;;11.30;87.20;;;;;;4823379;29;20054;-73
2021/11/19 06:04:10;;;;;;;1.88;1.02;;;11.30;87.30;;;;;;4817166;29;20428;-74
2021/11/19 06:06:56;;;;;;;1.02;0.60;;;11.30;87.40;;;;;;4831868;29;20042;-74
2021/11/19 06:09:41;;;;;;;1.50;0.60;;;11.30;87.50;;;;;;4828732;29;20053;-74
2021/11/19 06:12:24;;;;;;;1.58;0.80;;;11.30;87.50;;;;;;4824582;29;20416;-74
2021/11/19 06:15:00;;;;;;;4.13;0.63;;;11.30;87.50;;;;;;4827584;29;20061;-74
2021/11/19 06:17:38;;;;;;;1.05;0.65;;;11.30;87.50;;;;;;4826796;29;20062;-76
2021/11/19 06:20:15;;;;;;;1.63;0.70;;;11.30;87.50;;;;;;4832081;29;20057;-74
2021/11/19 06:22:51;;;;;;;3.17;0.90;;;11.30;87.60;;;;;;4830435;29;20042;-74
2021/11/19 06:25:24;;;;;;;1.88;0.75;;;11.30;87.60;;;;;;4826658;29;20046;-74
2021/11/19 06:27:54;;;;;;;1.30;0.50;;;11.30;87.60;;;;;;4823887;29;20046;-74
2021/11/19 06:30:23;;;;;;;2.45;0.80;;;11.30;87.60;;;;;;4822669;29;20046;-74
2021/11/19 06:32:52;;;;;;;1.55;0.60;;;11.30;87.70;;;;;;4842942;29;20050;-74
2021/11/19 06:35:20;;;;;;;1.70;0.90;;;11.30;87.70;;;;;;4828480;29;20054;-74
2021/11/19 06:37:48;;;;;;;1.63;0.70;;;11.30;87.70;;;;;;4828406;29;20042;-74
2021/11/19 06:40:36;;;;;;;1.30;0.50;;;11.20;87.80;;;;;;4829824;29;20409;-74
2021/11/19 06:43:16;;;;;;;1.15;0.70;;;11.20;87.70;;;;;;4858584;29;20054;-74
2021/11/19 06:46:04;;;;;;;1.42;0.57;;;11.20;87.60;;;;;;4845322;29;20122;-74
2021/11/19 06:48:44;;;;;;;1.35;0.65;;;11.30;87.50;;;;;;4842425;29;20057;-74
2021/11/19 06:51:31;;;;;;;0.95;0.52;;;11.30;87.40;;;;;;4828051;29;20508;-74
2021/11/19 06:54:25;;;;;;;;;;;11.30;87.30;;;;;;4812828;29;20456;-74
2021/11/19 06:57:09;;;;;;;2.25;0.73;;;11.30;87.30;;;;;;4842646;29;20391;-74
2021/11/19 06:59:41;;;;;;;1.92;0.70;;;11.30;87.30;;;;;;4818153;29;20041;-74
2021/11/19 07:02:11;;;;;;;2.08;0.63;;;11.30;87.30;;;;;;4833428;29;20057;-74
2021/11/19 07:04:41;;;;;;;1.23;0.80;;;11.30;87.40;;;;;;4826557;29;20046;-74
2021/11/19 07:07:09;;;;;;;3.30;0.75;;;11.30;87.20;;;;;;4842854;29;20054;-74
2021/11/19 07:09:39;;;;;;;2.30;1.23;;;11.30;87.10;;;;;;4826382;29;20049;-74
2021/11/19 07:12:14;;;;;;;1.30;0.80;;;11.30;87.10;;;;;;4842428;29;20057;-73
2021/11/19 07:14:54;;;;;;;1.20;1.10;;;11.30;87.10;;;;;;4825777;29;20068;-75
2021/11/19 07:17:22;;;;;;;1.63;0.65;;;11.30;87.30;;;;;;4810390;29;20050;-74
2021/11/19 07:19:50;;;;;;;1.05;0.57;;;11.30;87.60;;;;;;4824823;29;20504;-75
2021/11/19 07:22:19;;;;;;;3.05;0.80;;;11.20;87.80;;;;;;4842705;29;20052;-74
2021/11/19 07:24:55;;;;;;;3.13;0.57;;;11.30;88.00;;;;;;4840669;29;20054;-73
2021/11/19 07:27:23;;;;;;;1.05;0.50;;;11.20;88.30;;;;;;4826224;29;20489;-74
2021/11/19 07:29:51;;;;;;;0.38;0.38;;;11.20;88.50;;;;;;4824088;29;20056;-75
2021/11/19 07:32:42;;;;;;;2.13;0.50;;;11.20;88.70;;;;;;4810769;29;20054;-74
2021/11/19 07:35:34;;;;;;;3.30;0.70;;;11.10;88.60;;;;;;4810684;29;20111;-74
2021/11/19 07:38:32;;;;;;;1.58;0.50;;;11.10;88.80;;;;;;4810860;29;20353;-75
2021/11/19 07:41:14;;;;;;;1.50;0.55;;;11.00;89.00;;;;;;4821504;29;20054;-75
2021/11/19 07:43:53;;;;;;;1.77;0.65;;;10.90;89.10;;;;;;4825701;29;20058;-73
2021/11/19 07:46:53;;;;;;;3.22;0.80;;;10.80;89.20;;;;;;4811831;29;20066;-75
2021/11/19 07:49:23;;;;;;;0.85;0.50;;;10.80;89.30;;;;;;4803591;29;20054;-75
2021/11/19 07:51:55;;;;;;;1.38;0.50;;;10.80;89.50;;;;;;4812728;29;20674;-74
2021/11/19 07:54:24;;;;;;;0.75;0.50;;;10.70;89.70;;;;;;4806486;29;20050;-75
2021/11/19 07:56:51;;;;;;;0.68;0.57;;;10.70;89.80;;;;;;4806517;29;20050;-75
2021/11/19 07:59:27;;;;;;;2.10;0.70;;;10.70;90.00;;;;;;4806522;29;20650;-74
2021/11/19 08:01:59;;;;;;;1.85;0.73;;;10.60;90.10;;;;;;4802222;29;20051;-75
2021/11/19 08:04:33;;;;;;;1.20;0.70;;;10.60;90.40;;;;;;4820157;29;20065;-74
2021/11/19 08:07:07;;;;;;;1.80;0.60;;;10.60;90.60;;;;;;4817072;29;20058;-75
2021/11/19 08:09:49;;;;;;;4.28;0.90;;;10.60;90.80;;;;;;4822697;29;20519;-74
2021/11/19 08:12:33;;;;;;;3.85;1.00;;;10.60;91.10;;;;;;4816057;29;20053;-74
2021/11/19 08:15:18;;;;;;;2.85;0.65;;;10.60;91.10;;;;;;4826015;29;20062;-72
2021/11/19 08:17:49;;;;;;;3.25;0.90;;;10.60;91.40;;;;;;4824426;29;20061;-73
2021/11/19 08:20:42;;;;;;;1.80;0.70;;;10.70;91.40;;;;;;4825156;29;20523;-72
2021/11/19 08:23:33;;;;;;;2.05;0.80;;;10.70;91.60;;;;;;4839984;29;20393;-72
2021/11/19 08:26:08;;;;;;;0.82;0.70;;;10.70;91.50;;;;;;4840591;29;20045;-72
2021/11/19 08:28:37;;;;;;;2.42;0.68;;;10.80;91.60;;;;;;4849258;29;20117;-72
2021/11/19 08:31:06;;;;;;;1.58;0.88;;;10.80;91.60;;;;;;4862814;29;20048;-72
2021/11/19 08:33:34;;;;;;;0.77;0.60;;;11.00;91.60;;;;;;4850731;29;20042;-72
2021/11/19 08:36:03;;;;;;;1.55;0.80;;;11.00;91.60;;;;;;4841416;29;20065;-72
2021/11/19 08:38:32;;;;;;;3.92;1.17;;;11.00;91.70;;;;;;4841910;29;20057;-73
2021/11/19 08:41:00;;;;;;;4.72;0.90;;;11.00;91.60;;;;;;4841496;29;20342;-72
2021/11/19 08:43:33;;;;;;;0.80;0.60;;;11.00;91.70;;;;;;4841604;29;20046;-73
2021/11/19 08:46:05;;;;;;;0.80;0.63;;;11.00;91.80;;;;;;4841657;29;20623;-73
2021/11/19 08:48:34;;;;;;;1.50;0.80;;;11.10;92.00;;;;;;4824722;29;20520;-72
2021/11/19 08:51:05;;;;;;;1.70;0.85;;;11.00;92.00;;;;;;4841536;29;20050;-72
2021/11/19 08:53:33;;;;;;;2.40;0.90;;;11.00;92.00;;;;;;4825054;29;20393;-72
2021/11/19 08:56:02;;;;;;;2.22;0.80;;;10.90;92.10;;;;;;4841450;29;20049;-72
2021/11/19 08:58:36;;;;;;;1.42;0.98;;;11.00;92.20;;;;;;4841521;29;20300;-72
2021/11/19 09:01:06;;;;;;;2.13;0.80;;;11.00;92.20;;;;;;4841525;29;20500;-72
2021/11/19 09:03:34;;;;;;;1.13;0.90;;;10.90;92.40;;;;;;4841201;29;20404;-73
2021/11/19 09:06:06;;;;;;;0.80;0.80;;;10.90;92.40;;;;;;4841738;29;20508;-74
2021/11/19 09:08:36;;;;;;;1.88;1.17;;;10.90;92.50;;;;;;4841511;29;20058;-73
2021/11/19 09:11:08;;;;;;;1.10;0.80;;;10.90;92.60;;;;;;4841319;29;20054;-73
2021/11/19 09:13:35;;;;;;;1.33;0.80;;;10.90;92.70;;;;;;4841459;29;20311;-71
2021/11/19 09:16:06;;;;;;;1.65;0.75;;;11.00;92.70;;;;;;4840396;29;20054;-71
2021/11/19 09:19:16;;;;;;;1.42;0.73;;;11.00;92.70;;;;;;4841152;29;20058;-71
2021/11/19 09:22:26;;;;;;;0.77;0.70;;;11.10;92.50;;;;;;4831041;29;20058;-72
2021/11/19 09:24:54;;;;;;;1.20;0.70;;;11.20;92.40;;;;;;4784560;30;20062;-72
2021/11/19 09:27:22;;;;;;;2.83;0.95;;;11.30;92.30;;;;;;4783432;30;20534;-72
2021/11/19 09:29:58;;;;;;;1.33;0.68;;;11.30;92.20;;;;;;4784493;30;20518;-73
2021/11/19 09:32:27;;;;;;;1.02;0.50;;;11.40;92.10;;;;;;4784521;30;20066;-71
2021/11/19 09:34:57;;;;;;;1.45;0.70;;;11.50;92.00;;;;;;4784400;30;20055;-71
2021/11/19 09:37:26;;;;;;;0.98;0.55;;;11.60;91.80;;;;;;4785119;30;20063;-72
2021/11/19 09:39:55;;;;;;;1.20;0.77;;;11.70;91.60;;;;;;4805300;30;20043;-71
2021/11/19 09:42:35;;;;;;;1.60;0.70;;;11.80;91.50;;;;;;4774131;30;20415;-71
2021/11/19 09:45:34;;;;;;;1.42;0.70;;;11.80;91.30;;;;;;4793193;30;20080;-72
2021/11/19 09:48:14;;;;;;;0.35;0.30;;;11.90;91.10;;;;;;4797395;30;20055;-72
2021/11/19 09:50:53;;;;;;;1.33;0.60;;;11.90;90.70;;;;;;4788145;30;20055;-72
2021/11/19 09:53:39;;;;;;;2.42;0.50;;;11.90;90.60;;;;;;4787845;30;20119;-72
2021/11/19 09:56:25;;;;;;;0.45;0.45;;;11.90;90.40;;;;;;4820106;29;20081;-73
2021/11/19 09:59:10;;;;;;;0.50;0.50;;;11.90;90.40;;;;;;4844949;29;20050;-72
2021/11/19 10:01:59;;;;;;;1.02;0.40;;;11.90;90.30;;;;;;4812902;29;20065;-72
2021/11/19 10:04:50;;;;;;;0.90;0.40;;;11.80;90.30;;;;;;4844343;29;20496;-72
2021/11/19 10:07:41;;;;;;;0.68;0.45;;;11.80;90.30;;;;;;4844906;29;20050;-72
2021/11/19 10:10:30;;;;;;;4.35;0.63;;;11.80;90.30;;;;;;4844094;29;20061;-72
2021/11/19 10:13:33;;;;;;;0.65;0.45;;;11.80;90.30;;;;;;4843651;29;20413;-72
2021/11/19 10:16:09;;;;;;;1.45;0.52;;;11.90;90.30;;;;;;4787177;30;20051;-72
2021/11/19 10:18:40;;;;;;;1.65;0.50;;;12.00;90.00;;;;;;4787113;30;20059;-72
2021/11/19 10:21:16;;;;;;;1.42;0.70;;;12.10;89.80;;;;;;4786946;30;20055;-72
2021/11/19 10:24:20;;;;;;;3.28;0.60;;;12.20;89.50;;;;;;4787148;30;20063;-72
2021/11/19 10:26:48;;;;;;;5.25;1.00;;;12.30;89.40;;;;;;4787029;30;20055;-71
2021/11/19 10:29:27;;;;;;;0.93;0.70;;;12.30;89.20;;;;;;4780522;30;20063;-72
2021/11/19 10:31:59;;;;;;;1.30;0.60;;;12.40;88.90;;;;;;4768916;30;20059;-73
2021/11/19 10:34:48;;;;;;;0.85;0.80;;;12.60;88.50;;;;;;4769183;30;20059;-72
2021/11/19 10:37:57;;;;;;;1.08;0.70;;;12.70;88.00;;;;;;4785622;30;20059;-72
2021/11/19 10:40:24;;;;;;;1.50;0.50;;;12.80;87.30;;;;;;4786750;30;20586;-72
2021/11/19 10:43:10;;;;;;;2.17;0.40;;;12.80;86.90;;;;;;4786981;30;20067;-71
2021/11/19 10:46:12;;;;;;;0.40;0.35;;;12.90;86.40;;;;;;4790258;30;20076;-72
2021/11/19 10:49:07;;;;;;;0.43;0.40;;;13.00;86.00;;;;;;4790191;30;20059;-72
2021/11/19 10:51:53;;;;;;;1.85;0.40;;;13.10;85.90;;;;;;4797989;29;20051;-72
2021/11/19 10:54:39;;;;;;;0.50;0.40;;;13.30;85.40;;;;;;4852205;29;20062;-72
2021/11/19 10:57:16;;;;;;;2.30;0.63;;;13.30;84.50;;;;;;4841158;29;20370;-72
2021/11/19 11:00:18;;;;;;;1.92;0.70;;;13.40;84.10;;;;;;4843836;29;20048;-72
2021/11/19 11:02:54;;;;;;;1.98;0.40;;;13.50;84.20;;;;;;4850301;29;20081;-73
2021/11/19 11:05:35;;;;;;;0.47;0.30;;;13.60;84.00;;;;;;4859579;29;20056;-72
2021/11/19 11:08:14;;;;;;;0.80;0.40;;;13.70;83.60;;;;;;4827563;29;20057;-72
2021/11/19 11:10:56;;;;;;;1.02;0.40;;;13.80;82.80;;;;;;4843113;29;20049;-72
2021/11/19 11:13:56;;;;;;;0.40;0.40;;;13.80;83.00;;;;;;4842139;29;20057;-72
2021/11/19 11:16:36;;;;;;;0.95;0.40;;;13.80;82.50;;;;;;4842891;29;20058;-72
2021/11/19 11:19:10;;;;;;;0.68;0.43;;;13.80;82.10;;;;;;4811482;29;20062;-72
2021/11/19 11:21:54;;;;;;;0.68;0.50;;;13.80;82.50;;;;;;4842649;29;20069;-72
2021/11/19 11:24:26;;;;;;;3.15;0.57;;;14.00;82.40;;;;;;4842779;29;20068;-72
2021/11/19 11:27:25;;;;;;;0.85;0.55;;;14.30;81.50;;;;;;4842373;29;20060;-72
2021/11/19 11:30:01;;;;;;;0.93;0.50;;;14.30;80.30;;;;;;4842398;29;20053;-73
2021/11/19 11:33:08;;;;;;;3.40;0.40;;;14.30;80.60;;;;;;4842828;29;20042;-73
2021/11/19 11:35:46;;;;;;;0.77;0.40;;;14.20;80.70;;;;;;4842700;29;20519;-72
2021/11/19 11:38:34;;;;;;;0.98;0.50;;;14.00;80.60;;;;;;4842571;29;20057;-72
2021/11/19 11:41:14;;;;;;;1.77;0.40;;;13.80;80.70;;;;;;4817992;29;20050;-72
2021/11/19 11:43:46;;;;;;;1.10;0.20;;;13.80;81.50;;;;;;4824490;29;20062;-72
2021/11/19 11:46:30;;;;;;;1.10;0.40;;;14.10;81.40;;;;;;4827253;29;20066;-72
2021/11/19 11:49:16;;;;;;;;;;;14.30;80.50;;;;;;4865601;29;20049;-72
2021/11/19 11:51:47;;;;;;;2.08;0.47;;;14.50;79.50;;;;;;4830913;29;19924;-73
2021/11/19 11:54:25;;;;;;;1.95;0.30;;;14.60;79.70;;;;;;4842303;29;20054;-72
2021/11/19 11:57:36;;;;;;;0.30;0.30;;;15.00;79.80;;;;;;4841768;29;20091;-72
2021/11/19 12:00:34;;;;;;;0.77;0.30;;;15.80;76.50;;;;;;4785531;30;20047;-73
2021/11/19 12:03:39;;;;;;;0.40;0.40;;;16.20;75.90;;;;;;4785483;30;20059;-72
2021/11/19 12:06:45;;;;;;;1.20;0.52;;;16.20;73.00;;;;;;4784486;29;20063;-72
2021/11/19 12:09:35;;;;;;;1.13;0.40;;;16.20;72.70;;;;;;4777882;30;20058;-72
2021/11/19 12:12:27;;;;;;;0.88;0.60;;;16.00;72.70;;;;;;4770807;30;20062;-72
2021/11/19 12:15:11;;;;;;;3.17;0.60;;;15.70;73.30;;;;;;4786624;29;20062;-72
2021/11/19 12:18:02;;;;;;;1.05;0.60;;;15.60;74.30;;;;;;4785367;29;20062;-72
2021/11/19 12:20:49;;;;;;;3.63;0.77;;;16.00;74.10;;;;;;4785017;29;20059;-72
2021/11/19 12:23:25;;;;;;;0.45;0.40;;;16.10;72.90;;;;;;4784633;30;20055;-72
2021/11/19 12:26:18;;;;;;;1.35;0.63;;;16.40;71.20;;;;;;4785195;30;20512;-73
2021/11/19 12:28:53;;;;;;;1.35;0.70;;;16.80;70.50;;;;;;4793532;30;20047;-73
2021/11/19 12:31:33;;;;;;;1.35;0.57;;;17.30;67.40;;;;;;4825458;29;20497;-73
2021/11/19 12:34:18;;;;;;;1.75;0.80;;;17.40;66.60;;;;;;4807604;29;20051;-71
2021/11/19 12:37:01;;;;;;;2.17;0.70;;;17.30;66.70;;;;;;4807475;29;20058;-71
2021/11/19 12:39:34;;;;;;;1.17;0.70;;;17.20;67.70;;;;;;4840030;29;20061;-71
2021/11/19 12:42:21;;;;;;;2.15;0.80;;;17.20;68.10;;;;;;4841647;29;20062;-71
2021/11/19 12:45:11;;;;;;;1.23;0.82;;;17.70;67.20;;;;;;4841714;29;20050;-71
2021/11/19 12:48:26;;;;;;;1.52;0.40;;;18.00;65.60;;;;;;4841346;29;20054;-71
2021/11/19 12:51:08;;;;;;;1.17;0.60;;;18.60;64.10;;;;;;4841914;29;20386;-71
2021/11/19 12:54:02;;;;;;;3.35;0.70;;;19.00;63.80;;;;;;4840950;29;20069;-71
2021/11/19 12:56:54;;;;;;;5.47;0.70;;;18.50;61.10;;;;;;4840895;29;20046;-71
2021/11/19 12:59:40;;;;;;;2.13;0.53;;;17.80;63.60;;;;;;4826679;29;20061;-71
2021/11/19 13:02:17;;;;;;;3.20;0.80;;;18.00;63.60;;;;;;4832218;29;20060;-71
2021/11/19 13:05:03;;;;;;;3.08;0.55;;;18.30;63.20;;;;;;4846077;29;20530;-71
2021/11/19 13:07:43;;;;;;;3.55;0.60;;;19.00;61.70;;;;;;4830012;29;20045;-71
2021/11/19 13:10:20;;;;;;;4.45;0.80;;;19.20;60.40;;;;;;4830698;29;20424;-71
2021/11/19 13:12:57;;;;;;;2.15;0.60;;;19.20;58.50;;;;;;4841663;29;20374;-72
2021/11/19 13:15:33;;;;;;;1.15;0.60;;;19.00;59.50;;;;;;4841690;29;20054;-72
2021/11/19 13:18:09;;;;;;;1.88;0.60;;;19.20;59.90;;;;;;4845475;29;20504;-72
2021/11/19 13:20:46;;;;;;;1.63;0.60;;;19.30;58.90;;;;;;4840130;29;20141;-72
2021/11/19 13:23:37;;;;;;;3.72;0.80;;;19.00;58.90;;;;;;4835416;29;20408;-72
2021/11/19 13:26:11;;;;;;;1.58;0.60;;;18.50;59.10;;;;;;4827054;29;20050;-71
2021/11/19 13:28:46;;;;;;;0.70;0.60;;;17.80;61.00;;;;;;4825847;29;20408;-71
2021/11/19 13:31:24;;;;;;;0.60;0.60;;;17.10;62.80;;;;;;4826725;29;20054;-72
2021/11/19 13:34:20;;;;;;;1.75;0.75;;;16.50;64.30;;;;;;4827315;29;20058;-72
2021/11/19 13:37:10;;;;;;;0.80;0.70;;;15.80;66.80;;;;;;4826572;29;20054;-72
2021/11/19 13:39:38;;;;;;;1.25;0.47;;;15.50;68.20;;;;;;4824938;29;20500;-71